Time;durP1;ratioP1;P1;durP2;ratioP2;P2;SDS_P1;SDS_P2;PMS_P1;PMS_P2;Temp;Humidity;BMP_temperature;BMP_pressure;BME280_temperature;BME280_humidity;BME280_pressure;Samples;Min_cycle;Max_cycle;Signal;HPM_P1;HPM_P2
2021/05/31 00:01:27;;;;;;;20.55;10.82;;;14.90;73.20;;;;;;5071667;28;20024;-62
2021/05/31 00:03:53;;;;;;;17.67;11.25;;;14.90;73.30;;;;;;5064163;28;20056;-62
2021/05/31 00:06:20;;;;;;;22.55;10.45;;;14.90;73.30;;;;;;5062792;28;20036;-62
2021/05/31 00:08:45;;;;;;;18.83;11.60;;;14.90;73.20;;;;;;5071278;28;20115;-62
2021/05/31 00:11:11;;;;;;;18.63;9.77;;;14.90;73.20;;;;;;5064078;28;20123;-62
2021/05/31 00:13:37;;;;;;;14.75;9.98;;;14.90;73.10;;;;;;5052380;28;20057;-62
2021/05/31 00:16:03;;;;;;;17.83;10.13;;;14.90;73.20;;;;;;5071737;28;20033;-62
2021/05/31 00:18:28;;;;;;;24.38;10.02;;;14.90;73.40;;;;;;5070464;28;20479;-62
2021/05/31 00:20:54;;;;;;;20.30;9.18;;;14.90;73.60;;;;;;5060611;28;20051;-62
2021/05/31 00:23:20;;;;;;;16.80;8.50;;;14.80;73.60;;;;;;5064673;28;20581;-62
2021/05/31 00:25:46;;;;;;;14.68;8.20;;;14.80;73.70;;;;;;5057186;28;20108;-62
2021/05/31 00:28:13;;;;;;;15.80;8.77;;;14.80;73.80;;;;;;5066113;28;20452;-62
2021/05/31 00:30:39;;;;;;;15.15;8.60;;;14.70;73.90;;;;;;5055843;28;20029;-62
2021/05/31 00:33:05;;;;;;;20.65;8.18;;;14.70;74.00;;;;;;5066950;28;20105;-62
2021/05/31 00:35:31;;;;;;;19.55;8.52;;;14.70;74.00;;;;;;5053473;28;20032;-62
2021/05/31 00:37:56;;;;;;;16.77;8.20;;;14.70;74.20;;;;;;5054964;28;20124;-62
2021/05/31 00:40:24;;;;;;;16.92;8.20;;;14.70;74.30;;;;;;5065167;28;20033;-62
2021/05/31 00:42:50;;;;;;;18.20;8.68;;;14.70;74.40;;;;;;5072304;28;20547;-62
2021/05/31 00:45:16;;;;;;;12.70;7.95;;;14.70;74.40;;;;;;5061697;28;20111;-62
2021/05/31 00:47:42;;;;;;;21.98;7.38;;;14.60;74.50;;;;;;5072943;28;20024;-62
2021/05/31 00:50:11;;;;;;;18.63;7.85;;;14.60;74.70;;;;;;5071439;28;20027;-62
2021/05/31 00:52:37;;;;;;;19.35;7.78;;;14.60;74.90;;;;;;5070104;28;20040;-62
2021/05/31 00:55:04;;;;;;;15.02;7.45;;;14.60;75.10;;;;;;5071365;28;20536;-62
2021/05/31 00:57:30;;;;;;;11.25;7.15;;;14.50;75.10;;;;;;5055079;28;20032;-62
2021/05/31 00:59:56;;;;;;;15.70;8.18;;;14.50;75.20;;;;;;5054303;28;20029;-62
2021/05/31 01:02:22;;;;;;;23.33;8.32;;;14.60;75.20;;;;;;5054089;28;20032;-62
2021/05/31 01:04:47;;;;;;;18.80;8.35;;;14.50;75.30;;;;;;5066693;28;20098;-62
2021/05/31 01:07:29;;;;;;;19.00;8.85;;;14.50;75.30;;;;;;5059261;28;20035;-62
2021/05/31 01:10:14;;;;;;;16.08;9.98;;;14.50;75.30;;;;;;5061625;28;20036;-62
2021/05/31 01:13:12;;;;;;;15.35;9.75;;;14.50;75.20;;;;;;5073199;28;20040;-62
2021/05/31 01:16:02;;;;;;;21.13;9.68;;;14.50;75.30;;;;;;5072637;28;20889;-62
2021/05/31 01:18:35;;;;;;;17.83;9.23;;;14.50;75.30;;;;;;5064950;28;20037;-62
2021/05/31 01:21:23;;;;;;;16.02;8.20;;;14.50;75.40;;;;;;5068048;28;20028;-62
2021/05/31 01:23:59;;;;;;;21.95;9.13;;;14.50;75.60;;;;;;5073178;28;20131;-62
2021/05/31 01:26:28;;;;;;;18.02;8.82;;;14.50;75.70;;;;;;5070913;28;20391;-62
2021/05/31 01:29:08;;;;;;;21.85;9.43;;;14.50;75.60;;;;;;5069662;28;20456;-62
2021/05/31 01:31:45;;;;;;;20.52;8.82;;;14.50;75.80;;;;;;5069675;28;20102;-62
2021/05/31 01:34:12;;;;;;;20.27;9.73;;;14.50;75.80;;;;;;5061670;28;20045;-62
2021/05/31 01:36:43;;;;;;;15.18;9.43;;;14.50;75.90;;;;;;5070590;28;20020;-62
2021/05/31 01:39:11;;;;;;;21.27;10.50;;;14.50;76.20;;;;;;5074092;28;20029;-62
2021/05/31 01:41:37;;;;;;;27.83;11.70;;;14.40;76.30;;;;;;5071129;28;20472;-62
2021/05/31 01:44:04;;;;;;;25.38;11.70;;;14.40;76.50;;;;;;5065238;28;20037;-62
2021/05/31 01:46:30;;;;;;;24.80;11.07;;;14.50;76.80;;;;;;5054201;28;20032;-62
2021/05/31 01:48:57;;;;;;;21.52;12.10;;;14.40;76.80;;;;;;5052619;28;20131;-62
2021/05/31 01:51:24;;;;;;;30.10;12.32;;;14.50;77.00;;;;;;5064475;28;20021;-62
2021/05/31 01:53:51;;;;;;;30.60;12.07;;;14.40;77.10;;;;;;5057388;28;20028;-62
2021/05/31 01:56:18;;;;;;;24.23;11.70;;;14.40;77.10;;;;;;5062887;28;20093;-62
2021/05/31 01:58:44;;;;;;;20.50;10.80;;;14.40;77.20;;;;;;5057429;28;20052;-62
2021/05/31 02:01:11;;;;;;;24.90;10.95;;;14.40;77.10;;;;;;5062307;28;20025;-62
2021/05/31 02:03:37;;;;;;;27.80;11.63;;;14.40;77.20;;;;;;5072021;28;20064;-62
2021/05/31 02:06:04;;;;;;;19.02;10.05;;;14.50;77.40;;;;;;5073630;28;20107;-62
2021/05/31 02:08:29;;;;;;;18.77;9.40;;;14.50;77.20;;;;;;5065396;28;20097;-62
2021/05/31 02:11:01;;;;;;;27.13;11.10;;;14.50;77.10;;;;;;5062880;28;20040;-62
2021/05/31 02:13:29;;;;;;;24.92;10.35;;;14.50;77.30;;;;;;5063962;28;20049;-62
2021/05/31 02:16:03;;;;;;;23.83;9.20;;;14.50;77.30;;;;;;5068822;28;20371;-62
2021/05/31 02:18:44;;;;;;;22.23;10.48;;;14.50;77.40;;;;;;5071723;28;20090;-62
2021/05/31 02:21:14;;;;;;;21.13;10.95;;;14.50;77.40;;;;;;5071411;28;20082;-62
2021/05/31 02:23:41;;;;;;;30.95;11.80;;;14.50;77.50;;;;;;5071464;28;20031;-62
2021/05/31 02:26:14;;;;;;;;;;;14.50;77.60;;;;;;5071652;28;20063;-62
2021/05/31 02:28:41;;;;;;;22.30;8.90;;;14.50;77.30;;;;;;5056223;28;20372;-62
2021/05/31 02:31:07;;;;;;;23.17;10.20;;;14.40;77.30;;;;;;5057227;28;20029;-62
2021/05/31 02:33:33;;;;;;;18.15;10.05;;;14.50;77.50;;;;;;5062038;28;20028;-62
2021/05/31 02:35:59;;;;;;;17.15;9.98;;;14.40;77.60;;;;;;5071770;28;20079;-62
2021/05/31 02:38:24;;;;;;;20.33;9.70;;;14.40;77.60;;;;;;5068586;28;20494;-62
2021/05/31 02:40:50;;;;;;;24.02;10.85;;;14.40;77.50;;;;;;5061506;28;20020;-62
2021/05/31 02:43:16;;;;;;;20.90;10.20;;;14.50;77.60;;;;;;5069686;28;20472;-62
2021/05/31 02:45:42;;;;;;;19.33;8.77;;;14.50;77.70;;;;;;5068194;28;20115;-62
2021/05/31 02:48:08;;;;;;;22.88;9.10;;;14.50;77.80;;;;;;5070854;28;20484;-62
2021/05/31 02:50:34;;;;;;;19.38;8.45;;;14.50;77.80;;;;;;5059620;28;20021;-62
2021/05/31 02:53:00;;;;;;;20.75;9.63;;;14.50;78.00;;;;;;5067784;28;20131;-62
2021/05/31 02:55:29;;;;;;;15.13;8.43;;;14.40;78.00;;;;;;5071098;28;20095;-62
2021/05/31 02:57:55;;;;;;;21.10;9.13;;;14.40;78.10;;;;;;5070656;28;20036;-62
2021/05/31 03:00:24;;;;;;;17.48;7.85;;;14.50;78.00;;;;;;5059452;28;20107;-62
2021/05/31 03:02:51;;;;;;;16.48;6.97;;;14.40;78.10;;;;;;5058164;28;20040;-62
2021/05/31 03:05:19;;;;;;;15.02;6.72;;;14.40;78.10;;;;;;5068560;28;20091;-62
2021/05/31 03:07:46;;;;;;;18.55;8.68;;;14.40;78.10;;;;;;5055641;28;20559;-62
2021/05/31 03:10:13;;;;;;;18.85;9.48;;;14.40;78.10;;;;;;5069355;28;20107;-62
2021/05/31 03:12:39;;;;;;;22.75;9.85;;;14.40;78.20;;;;;;5070242;28;20044;-62
2021/05/31 03:15:07;;;;;;;20.77;9.48;;;14.40;78.20;;;;;;5068478;28;20039;-62
2021/05/31 03:17:33;;;;;;;24.27;8.57;;;14.40;78.40;;;;;;5051978;28;20087;-62
2021/05/31 03:19:59;;;;;;;16.60;7.32;;;14.40;78.30;;;;;;5057752;28;20041;-62
2021/05/31 03:22:25;;;;;;;19.08;7.43;;;14.40;78.50;;;;;;5071981;28;20038;-62
2021/05/31 03:24:50;;;;;;;19.17;7.15;;;14.40;78.40;;;;;;5072265;28;20028;-62
2021/05/31 03:27:16;;;;;;;19.23;8.40;;;14.40;78.50;;;;;;5071421;28;20081;-62
2021/05/31 03:29:42;;;;;;;19.45;7.07;;;14.40;78.40;;;;;;5065892;28;20021;-62
2021/05/31 03:32:08;;;;;;;20.85;7.45;;;14.40;79.00;;;;;;5060172;28;20154;-62
2021/05/31 03:34:34;;;;;;;17.17;7.47;;;14.40;78.50;;;;;;5057825;28;20128;-62
2021/05/31 03:37:00;;;;;;;21.42;7.13;;;14.40;78.70;;;;;;5058954;28;20040;-62
2021/05/31 03:39:25;;;;;;;22.23;8.20;;;14.40;78.90;;;;;;5059051;28;20029;-62
2021/05/31 03:41:51;;;;;;;22.60;8.90;;;14.40;79.00;;;;;;5055022;28;20160;-62
2021/05/31 03:44:17;;;;;;;23.52;9.65;;;14.40;79.20;;;;;;5061869;28;20029;-62
2021/05/31 03:46:43;;;;;;;23.70;9.57;;;14.30;79.30;;;;;;5065800;28;20029;-63
2021/05/31 03:49:09;;;;;;;20.30;9.23;;;14.30;79.30;;;;;;5066056;28;20025;-62
2021/05/31 03:51:35;;;;;;;20.13;8.65;;;14.30;79.40;;;;;;5052490;28;20065;-62
2021/05/31 03:54:00;;;;;;;23.95;9.00;;;14.30;79.50;;;;;;5051930;28;20128;-62
2021/05/31 03:56:26;;;;;;;23.13;9.10;;;14.30;79.60;;;;;;5054001;28;20071;-62
2021/05/31 03:58:53;;;;;;;24.50;8.85;;;14.30;79.70;;;;;;5052380;28;20464;-62
2021/05/31 04:01:19;;;;;;;20.67;10.18;;;14.30;79.80;;;;;;5055062;28;20021;-62
2021/05/31 04:03:45;;;;;;;22.98;10.15;;;14.30;80.00;;;;;;5053690;28;20048;-62
2021/05/31 04:11:41;;;;;;;17.67;9.57;;;14.20;80.30;;;;;;5063405;28;20063;-62
2021/05/31 04:14:12;;;;;;;24.45;11.00;;;14.20;80.50;;;;;;5074994;28;20119;-62
2021/05/31 04:16:41;;;;;;;22.13;10.88;;;14.30;80.90;;;;;;5063111;28;20108;-62
2021/05/31 04:19:08;;;;;;;27.30;11.85;;;14.30;81.00;;;;;;5066359;28;20026;-62
2021/05/31 04:21:36;;;;;;;26.55;11.75;;;14.30;81.20;;;;;;5066438;28;20131;-62
2021/05/31 04:24:03;;;;;;;23.92;11.05;;;14.20;81.90;;;;;;5072891;28;20122;-62
2021/05/31 04:26:29;;;;;;;24.73;12.45;;;14.20;81.20;;;;;;5075075;28;20028;-62
2021/05/31 04:28:55;;;;;;;24.95;11.18;;;14.20;81.40;;;;;;5074496;28;20060;-62
2021/05/31 04:31:20;;;;;;;26.17;11.15;;;14.30;81.50;;;;;;5065871;28;20060;-62
2021/05/31 04:33:46;;;;;;;28.15;12.07;;;14.30;81.70;;;;;;5069195;28;20039;-62
2021/05/31 04:36:12;;;;;;;26.63;11.48;;;14.30;81.80;;;;;;5069191;28;20357;-62
2021/05/31 04:38:38;;;;;;;31.08;11.93;;;14.30;82.00;;;;;;5072400;28;20456;-62
2021/05/31 04:41:04;;;;;;;25.90;11.93;;;14.30;82.00;;;;;;5069408;28;20021;-62
2021/05/31 04:43:30;;;;;;;33.88;12.70;;;14.30;82.20;;;;;;5065195;28;20024;-62
2021/05/31 04:45:56;;;;;;;29.58;12.45;;;14.30;82.20;;;;;;5071536;28;20082;-62
2021/05/31 04:48:21;;;;;;;28.70;11.35;;;14.40;82.30;;;;;;5068563;28;20036;-62
2021/05/31 04:50:47;;;;;;;29.38;10.77;;;14.40;82.50;;;;;;5073604;28;20112;-62
2021/05/31 04:53:13;;;;;;;24.92;12.35;;;14.40;82.40;;;;;;5066898;28;20103;-62
2021/05/31 04:55:40;;;;;;;34.90;11.50;;;14.40;82.50;;;;;;5054882;28;20017;-62
2021/05/31 04:58:06;;;;;;;30.33;12.88;;;14.40;82.70;;;;;;5069087;28;20028;-63
2021/05/31 05:00:31;;;;;;;26.48;11.45;;;14.40;82.90;;;;;;5071211;28;20441;-63
2021/05/31 05:02:57;;;;;;;27.27;12.27;;;14.40;83.00;;;;;;5059558;28;20039;-63
2021/05/31 05:05:25;;;;;;;29.63;11.40;;;14.40;83.10;;;;;;5058768;28;20017;-63
2021/05/31 05:07:51;;;;;;;27.48;11.60;;;14.40;83.00;;;;;;5056152;28;20049;-63
2021/05/31 05:10:21;;;;;;;27.48;12.40;;;14.40;83.30;;;;;;5058889;28;20353;-63
2021/05/31 05:12:49;;;;;;;26.30;12.20;;;14.40;83.10;;;;;;5059179;28;20382;-63
2021/05/31 05:15:17;;;;;;;24.35;11.15;;;14.40;83.00;;;;;;5057489;28;20488;-63
2021/05/31 05:17:44;;;;;;;24.90;11.38;;;14.50;83.30;;;;;;5053314;28;20039;-63
2021/05/31 05:20:11;;;;;;;30.08;12.10;;;14.50;83.40;;;;;;5055421;28;20517;-63
2021/05/31 05:22:37;;;;;;;33.47;13.60;;;14.50;83.40;;;;;;5056298;28;20091;-63
2021/05/31 05:25:04;;;;;;;28.25;11.65;;;14.50;83.30;;;;;;5058066;28;20106;-63
2021/05/31 05:27:29;;;;;;;38.08;12.07;;;14.50;83.40;;;;;;5058577;28;20031;-63
2021/05/31 05:29:55;;;;;;;31.73;13.32;;;14.50;83.50;;;;;;5060942;28;20025;-63
2021/05/31 05:32:21;;;;;;;33.08;11.70;;;14.50;83.50;;;;;;5061121;28;20047;-64
2021/05/31 05:34:48;;;;;;;19.52;10.75;;;14.60;83.70;;;;;;5064146;28;20024;-61
2021/05/31 05:37:42;;;;;;;26.83;10.00;;;14.60;83.80;;;;;;5064650;28;20052;-63
2021/05/31 05:43:02;;;;;;;47.38;12.68;;;14.60;83.60;;;;;;5066658;28;20056;-64
2021/05/31 05:48:06;;;;;;;22.00;11.40;;;14.60;83.80;;;;;;5060920;28;20033;-68
2021/05/31 05:50:31;;;;;;;26.52;13.27;;;14.60;83.90;;;;;;5057659;28;20029;-62
2021/05/31 05:52:57;;;;;;;31.50;12.27;;;14.60;83.90;;;;;;5058389;28;20047;-63
2021/05/31 05:55:23;;;;;;;67.93;13.38;;;14.60;84.10;;;;;;5060833;28;20031;-63
2021/05/31 05:57:49;;;;;;;28.38;11.68;;;14.70;84.10;;;;;;5065331;28;20047;-64
2021/05/31 06:00:18;;;;;;;26.17;11.00;;;14.70;84.30;;;;;;5063806;28;20543;-64
2021/05/31 06:02:45;;;;;;;23.48;12.38;;;14.70;84.10;;;;;;5052305;28;20028;-64
2021/05/31 06:05:11;;;;;;;27.27;11.90;;;14.70;84.00;;;;;;5071428;28;20036;-64
2021/05/31 06:07:37;;;;;;;23.50;11.60;;;14.80;84.00;;;;;;5069588;28;20028;-64
2021/05/31 06:10:04;;;;;;;29.95;12.18;;;14.70;83.80;;;;;;5071038;28;20043;-64
2021/05/31 06:12:30;;;;;;;33.22;13.25;;;14.80;83.60;;;;;;5069435;28;20159;-64
2021/05/31 06:14:56;;;;;;;25.88;11.88;;;14.80;83.80;;;;;;5068168;28;20147;-64
2021/05/31 06:17:21;;;;;;;43.45;12.50;;;14.90;83.70;;;;;;5060807;28;20032;-64
2021/05/31 06:19:47;;;;;;;35.65;12.45;;;14.80;83.60;;;;;;5068632;28;20086;-66
2021/05/31 06:22:13;;;;;;;27.95;11.93;;;14.90;83.90;;;;;;5071161;28;20035;-67
2021/05/31 06:24:39;;;;;;;33.05;11.48;;;14.90;83.70;;;;;;5064790;28;20025;-64
2021/05/31 06:27:05;;;;;;;29.08;12.77;;;14.90;83.90;;;;;;5065495;28;20040;-63
2021/05/31 06:29:31;;;;;;;24.52;10.50;;;14.90;84.10;;;;;;5062659;28;20554;-63
2021/05/31 06:31:57;;;;;;;23.85;11.90;;;15.00;83.80;;;;;;5065812;28;20037;-63
2021/05/31 06:34:23;;;;;;;26.45;11.65;;;15.00;83.70;;;;;;5061997;28;20466;-66
2021/05/31 06:36:54;;;;;;;42.33;13.45;;;15.00;83.60;;;;;;5062123;28;20079;-62
2021/05/31 06:39:20;;;;;;;27.67;13.63;;;15.00;83.90;;;;;;5061754;28;20033;-62
2021/05/31 06:41:46;;;;;;;35.92;13.70;;;15.10;84.00;;;;;;5072812;28;20033;-62
2021/05/31 06:44:12;;;;;;;25.73;13.50;;;15.10;84.10;;;;;;5066977;28;20031;-62
2021/05/31 06:46:37;;;;;;;27.35;12.75;;;15.20;84.10;;;;;;5062464;28;20090;-62
2021/05/31 06:49:03;;;;;;;26.75;12.75;;;15.10;84.20;;;;;;5068376;28;20031;-62
2021/05/31 06:51:29;;;;;;;27.65;13.35;;;15.20;84.20;;;;;;5064227;28;20385;-62
2021/05/31 06:53:55;;;;;;;25.77;13.30;;;15.20;84.40;;;;;;5052918;28;20040;-62
2021/05/31 06:56:23;;;;;;;21.98;13.82;;;15.20;84.40;;;;;;5057697;28;20063;-62
2021/05/31 06:58:50;;;;;;;25.17;13.88;;;15.30;84.20;;;;;;5072250;28;20028;-62
2021/05/31 07:01:16;;;;;;;28.80;15.75;;;15.30;84.10;;;;;;5069624;28;20487;-62
2021/05/31 07:03:42;;;;;;;28.00;14.73;;;15.30;84.00;;;;;;5062604;28;20087;-62
2021/05/31 07:06:08;;;;;;;30.13;16.58;;;15.30;84.00;;;;;;5057469;28;20112;-62
2021/05/31 07:08:34;;;;;;;27.30;15.50;;;15.40;83.70;;;;;;5064677;28;20114;-62
2021/05/31 07:11:03;;;;;;;30.40;17.42;;;15.40;83.70;;;;;;5052628;28;20036;-62
2021/05/31 07:13:30;;;;;;;32.97;16.92;;;15.40;83.60;;;;;;5051830;28;20055;-62
2021/05/31 07:15:56;;;;;;;31.75;17.48;;;15.40;83.40;;;;;;5053839;28;20056;-62
2021/05/31 07:18:23;;;;;;;34.30;18.42;;;15.40;83.50;;;;;;5059633;28;20107;-62
2021/05/31 07:20:51;;;;;;;34.83;19.00;;;15.50;83.60;;;;;;5055385;28;20021;-62
2021/05/31 07:23:18;;;;;;;34.65;19.25;;;15.50;83.50;;;;;;5069065;28;20468;-62
2021/05/31 07:25:45;;;;;;;38.78;19.65;;;15.60;83.40;;;;;;5056382;28;20468;-62
2021/05/31 07:28:11;;;;;;;38.25;20.75;;;15.60;83.30;;;;;;5057834;28;20034;-64
2021/05/31 07:30:37;;;;;;;36.72;20.45;;;15.60;83.20;;;;;;5055160;28;20032;-63
2021/05/31 07:33:04;;;;;;;36.10;18.60;;;15.70;83.10;;;;;;5064124;28;20044;-63
2021/05/31 07:35:29;;;;;;;36.28;19.38;;;15.70;83.00;;;;;;5057637;28;20085;-62
2021/05/31 07:37:55;;;;;;;38.63;21.20;;;15.80;83.00;;;;;;5063872;28;20029;-62
2021/05/31 07:40:22;;;;;;;42.25;22.00;;;15.80;83.00;;;;;;5052310;28;20064;-62
2021/05/31 07:42:48;;;;;;;37.25;20.63;;;15.80;83.00;;;;;;5056913;28;20025;-62
2021/05/31 07:45:17;;;;;;;39.20;21.35;;;15.90;83.00;;;;;;5063902;28;20051;-63
2021/05/31 07:47:43;;;;;;;38.38;21.20;;;15.90;83.00;;;;;;5071533;28;20116;-68
2021/05/31 07:50:10;;;;;;;42.45;21.05;;;15.90;83.00;;;;;;5066241;28;20052;-62
2021/05/31 07:52:36;;;;;;;36.35;19.27;;;16.00;83.10;;;;;;5055906;28;20040;-64
2021/05/31 07:55:07;;;;;;;37.72;22.42;;;16.00;82.70;;;;;;5068831;28;20033;-66
2021/05/31 07:57:33;;;;;;;39.85;22.00;;;16.00;82.90;;;;;;5059458;28;20400;-64
2021/05/31 07:59:59;;;;;;;42.28;20.95;;;16.10;83.00;;;;;;5062690;28;20032;-63
2021/05/31 08:02:25;;;;;;;45.47;22.65;;;16.10;83.10;;;;;;5056821;28;20016;-64
2021/05/31 08:04:51;;;;;;;44.25;20.45;;;16.20;83.10;;;;;;5057797;28;20473;-64
2021/05/31 08:07:16;;;;;;;37.58;19.00;;;16.30;83.30;;;;;;5062437;28;20032;-63
2021/05/31 08:09:42;;;;;;;36.63;19.10;;;16.30;82.90;;;;;;5056204;28;20037;-67
2021/05/31 08:12:09;;;;;;;37.00;20.30;;;16.30;82.80;;;;;;5065769;28;20025;-67
2021/05/31 08:14:34;;;;;;;38.08;20.05;;;16.40;83.10;;;;;;5067388;28;20075;-63
2021/05/31 08:17:00;;;;;;;35.30;19.63;;;16.50;83.00;;;;;;5071671;28;20052;-66
2021/05/31 08:19:29;;;;;;;36.30;19.02;;;16.50;82.80;;;;;;5064505;28;20443;-66
2021/05/31 08:21:55;;;;;;;36.03;20.15;;;16.60;82.90;;;;;;5071581;28;20032;-64
2021/05/31 08:24:21;;;;;;;37.47;19.80;;;16.60;82.70;;;;;;5061266;28;20075;-64
2021/05/31 08:26:47;;;;;;;38.78;19.65;;;16.70;82.90;;;;;;5068699;28;20060;-63
2021/05/31 08:29:13;;;;;;;35.05;18.83;;;16.70;82.90;;;;;;5058798;28;20048;-63
2021/05/31 08:31:39;;;;;;;33.28;17.33;;;16.80;82.90;;;;;;5060333;28;20075;-63
2021/05/31 08:34:05;;;;;;;36.40;19.63;;;16.80;82.70;;;;;;5057126;28;20036;-63
2021/05/31 08:36:34;;;;;;;39.00;19.23;;;16.80;82.70;;;;;;5063059;28;20066;-63
2021/05/31 08:38:59;;;;;;;34.72;19.17;;;16.90;82.50;;;;;;5060845;28;20032;-64
2021/05/31 08:41:26;;;;;;;34.40;17.92;;;17.00;82.60;;;;;;5047292;28;20434;-63
2021/05/31 08:43:52;;;;;;;38.28;20.05;;;17.00;82.60;;;;;;5058696;28;20033;-63
2021/05/31 08:46:18;;;;;;;34.40;19.33;;;17.00;82.60;;;;;;5057271;28;20551;-64
2021/05/31 08:48:44;;;;;;;33.45;18.33;;;17.10;82.90;;;;;;5057266;28;20021;-63
2021/05/31 08:51:10;;;;;;;32.45;17.75;;;17.10;83.10;;;;;;5057365;28;20064;-63
2021/05/31 08:53:36;;;;;;;32.80;19.75;;;17.20;82.90;;;;;;5057977;28;20076;-63
2021/05/31 08:56:03;;;;;;;32.53;19.80;;;17.20;83.30;;;;;;5060995;28;20044;-63
2021/05/31 08:58:29;;;;;;;37.88;20.38;;;17.30;82.60;;;;;;5069493;28;20024;-63
2021/05/31 09:00:55;;;;;;;39.60;19.23;;;17.30;82.70;;;;;;5060401;28;20431;-63
2021/05/31 09:03:21;;;;;;;39.92;20.48;;;17.30;82.90;;;;;;5070556;28;20025;-63
2021/05/31 09:05:49;;;;;;;34.05;19.80;;;17.40;83.20;;;;;;5072156;28;20033;-63
2021/05/31 09:08:20;;;;;;;32.10;19.15;;;17.40;83.00;;;;;;5056885;28;20055;-63
2021/05/31 09:10:52;;;;;;;34.83;20.05;;;17.50;83.50;;;;;;5066748;28;20025;-63
2021/05/31 09:13:43;;;;;;;37.22;21.73;;;17.50;83.10;;;;;;5067360;28;20065;-63
2021/05/31 09:16:13;;;;;;;40.78;18.98;;;17.50;83.10;;;;;;5069076;28;20036;-63
2021/05/31 09:18:45;;;;;;;30.42;19.23;;;17.60;84.00;;;;;;5065533;28;20024;-64
2021/05/31 09:21:14;;;;;;;34.35;18.63;;;17.70;83.10;;;;;;5061056;28;20473;-64
2021/05/31 09:23:40;;;;;;;32.00;19.67;;;17.70;82.90;;;;;;5074497;28;20097;-64
2021/05/31 09:26:07;;;;;;;35.53;18.40;;;17.80;82.90;;;;;;5056698;28;20025;-63
2021/05/31 09:28:33;;;;;;;33.80;19.52;;;17.80;82.20;;;;;;5067686;28;20078;-71
2021/05/31 09:30:58;;;;;;;32.72;18.30;;;17.80;81.90;;;;;;5059224;28;20021;-62
2021/05/31 09:33:24;;;;;;;33.08;18.20;;;17.80;82.10;;;;;;5060629;28;20041;-63
2021/05/31 09:35:51;;;;;;;26.88;16.83;;;17.90;82.00;;;;;;5070625;28;20434;-63
2021/05/31 09:38:18;;;;;;;27.23;17.48;;;17.90;81.50;;;;;;5066086;28;20036;-63
2021/05/31 09:40:54;;;;;;;26.02;15.45;;;17.90;81.80;;;;;;5069179;28;20025;-63
2021/05/31 09:43:23;;;;;;;26.40;16.42;;;18.00;81.10;;;;;;5064961;28;20051;-62
2021/05/31 09:45:49;;;;;;;25.95;15.73;;;18.10;80.50;;;;;;5064490;28;20028;-62
2021/05/31 09:48:15;;;;;;;29.23;15.65;;;18.10;80.20;;;;;;5067385;28;20098;-63
2021/05/31 09:50:52;;;;;;;26.90;15.95;;;18.20;80.00;;;;;;5059967;28;20036;-62
2021/05/31 09:53:17;;;;;;;21.45;13.20;;;18.20;80.30;;;;;;5064826;28;20044;-62
2021/05/31 09:55:46;;;;;;;18.30;11.82;;;18.20;80.10;;;;;;5066713;28;20032;-63
2021/05/31 09:58:13;;;;;;;22.77;13.00;;;18.30;79.30;;;;;;5067266;28;20025;-62
2021/05/31 10:00:46;;;;;;;23.05;14.55;;;18.40;79.00;;;;;;5053672;28;20037;-63
2021/05/31 10:06:09;;;;;;;20.42;12.57;;;18.40;78.40;;;;;;5054270;28;20033;-62
2021/05/31 10:11:04;;;;;;;21.98;12.65;;;18.50;77.80;;;;;;5053062;28;20040;-63
2021/05/31 10:13:31;;;;;;;19.13;10.38;;;18.60;77.40;;;;;;5054296;28;20136;-63
2021/05/31 10:15:57;;;;;;;17.75;10.98;;;18.60;76.40;;;;;;5054115;28;20051;-63
2021/05/31 10:18:25;;;;;;;15.75;10.10;;;18.70;75.80;;;;;;5059611;28;20371;-62
2021/05/31 10:20:51;;;;;;;23.38;10.93;;;18.70;76.20;;;;;;5059565;28;20090;-62
2021/05/31 10:23:17;;;;;;;20.85;11.73;;;18.80;75.40;;;;;;5065400;28;20040;-62
2021/05/31 10:25:50;;;;;;;17.00;10.85;;;18.80;75.80;;;;;;5068278;28;20036;-62
2021/05/31 10:28:21;;;;;;;17.23;9.30;;;18.90;75.00;;;;;;5056388;28;20043;-62
2021/05/31 10:31:07;;;;;;;15.35;10.13;;;18.90;75.50;;;;;;5064432;28;20057;-63
2021/05/31 10:33:40;;;;;;;20.48;8.98;;;19.00;74.80;;;;;;5066017;28;20036;-77
2021/05/31 10:36:21;;;;;;;17.65;9.60;;;19.00;74.10;;;;;;5056565;28;20104;-62
2021/05/31 10:38:50;;;;;;;14.68;8.95;;;19.10;74.20;;;;;;5055121;28;20025;-65
2021/05/31 10:41:25;;;;;;;20.10;9.13;;;19.20;73.90;;;;;;5069365;28;20033;-65
2021/05/31 10:43:53;;;;;;;19.83;8.85;;;19.10;73.20;;;;;;5062933;28;20380;-64
2021/05/31 10:46:32;;;;;;;14.70;8.80;;;19.20;72.90;;;;;;5062865;28;20025;-65
2021/05/31 10:49:00;;;;;;;11.20;7.63;;;19.30;72.80;;;;;;5061635;28;20028;-65
2021/05/31 10:51:30;;;;;;;13.48;7.75;;;19.30;72.30;;;;;;5054260;28;20025;-64
2021/05/31 10:54:16;;;;;;;11.13;6.85;;;19.40;72.40;;;;;;5051935;28;20090;-64
2021/05/31 10:56:43;;;;;;;13.75;6.95;;;19.50;71.80;;;;;;5055006;28;20116;-63
2021/05/31 10:59:15;;;;;;;16.42;7.80;;;19.50;71.60;;;;;;5054153;28;20119;-65
2021/05/31 11:01:41;;;;;;;15.00;6.88;;;19.60;71.30;;;;;;5054632;28;20480;-65
2021/05/31 11:04:27;;;;;;;11.45;5.60;;;19.60;70.60;;;;;;5064494;28;20041;-65
2021/05/31 11:06:55;;;;;;;11.85;5.25;;;19.60;70.80;;;;;;5053244;28;20033;-65
2021/05/31 11:09:26;;;;;;;11.68;4.63;;;19.60;71.00;;;;;;5065746;28;20154;-67
2021/05/31 11:11:54;;;;;;;10.82;3.95;;;19.70;69.00;;;;;;5055577;28;20197;-64
2021/05/31 11:14:47;;;;;;;8.00;3.45;;;19.70;69.80;;;;;;5057433;28;20052;-72
2021/05/31 11:17:14;;;;;;;6.03;3.15;;;19.80;70.70;;;;;;5063325;28;20178;-66
2021/05/31 11:19:42;;;;;;;15.38;4.10;;;19.80;71.00;;;;;;5066778;28;20452;-63
2021/05/31 11:22:18;;;;;;;7.07;3.58;;;19.90;70.40;;;;;;5071365;28;20039;-63
2021/05/31 11:24:50;;;;;;;7.25;4.07;;;19.90;70.70;;;;;;5064572;28;20033;-62
2021/05/31 11:27:16;;;;;;;7.22;3.60;;;19.90;70.70;;;;;;5070111;28;20074;-62
2021/05/31 11:29:42;;;;;;;10.70;3.22;;;19.90;71.00;;;;;;5064031;28;20107;-62
2021/05/31 11:32:07;;;;;;;7.53;4.47;;;19.90;71.00;;;;;;5064114;28;20035;-62
2021/05/31 11:34:33;;;;;;;10.07;4.30;;;19.90;70.10;;;;;;5062112;28;20105;-62
2021/05/31 11:37:00;;;;;;;8.63;4.10;;;20.10;70.30;;;;;;5064924;28;20024;-62
2021/05/31 11:39:33;;;;;;;9.50;4.78;;;20.10;70.80;;;;;;5071047;28;20020;-62
2021/05/31 11:41:59;;;;;;;5.10;3.65;;;20.20;69.50;;;;;;5072305;28;20052;-62
2021/05/31 11:44:29;;;;;;;9.25;5.00;;;20.20;70.10;;;;;;5063106;28;20067;-62
2021/05/31 11:47:00;;;;;;;12.23;4.50;;;20.30;70.00;;;;;;5070260;28;20040;-62
2021/05/31 11:49:28;;;;;;;8.70;3.88;;;20.30;69.40;;;;;;5069221;28;20064;-62
2021/05/31 11:52:09;;;;;;;7.35;3.25;;;20.40;69.70;;;;;;5071167;28;20043;-64
2021/05/31 11:54:37;;;;;;;10.90;4.40;;;20.40;69.90;;;;;;5050649;28;20476;-63
2021/05/31 11:57:07;;;;;;;10.82;3.65;;;20.50;68.90;;;;;;5063253;28;20028;-66
2021/05/31 11:59:35;;;;;;;13.18;5.80;;;20.60;68.00;;;;;;5067109;28;20113;-65
2021/05/31 12:02:04;;;;;;;6.78;3.17;;;20.60;67.90;;;;;;5061754;28;20043;-63
2021/05/31 12:04:29;;;;;;;6.80;3.35;;;20.70;68.20;;;;;;5054437;28;20047;-63
2021/05/31 12:07:02;;;;;;;7.72;4.05;;;20.80;68.70;;;;;;5049953;28;20029;-68
2021/05/31 12:09:28;;;;;;;7.90;3.88;;;20.80;67.50;;;;;;5063955;28;20472;-64
2021/05/31 12:11:56;;;;;;;4.47;3.10;;;20.80;68.20;;;;;;5056077;28;20041;-66
2021/05/31 12:14:24;;;;;;;6.40;3.72;;;20.90;69.00;;;;;;5056528;28;20033;-70
2021/05/31 12:16:59;;;;;;;6.50;3.60;;;20.90;68.80;;;;;;5055891;28;20028;-64
2021/05/31 12:19:30;;;;;;;5.47;2.25;;;21.00;67.90;;;;;;5053627;28;20028;-63
2021/05/31 12:22:03;;;;;;;7.72;3.97;;;21.00;69.20;;;;;;5056308;28;20029;-63
2021/05/31 12:24:32;;;;;;;;;;;21.00;68.40;;;;;;5057118;28;20035;-65
2021/05/31 12:26:59;;;;;;;8.50;3.78;;;21.00;70.30;;;;;;5062456;28;20338;-68
2021/05/31 12:29:43;;;;;;;10.02;3.83;;;21.00;69.10;;;;;;5064033;28;20028;-64
2021/05/31 12:32:11;;;;;;;10.38;4.18;;;21.00;68.90;;;;;;5060553;28;20029;-64
2021/05/31 12:34:38;;;;;;;8.75;3.67;;;21.00;68.30;;;;;;5053608;28;20036;-64
2021/05/31 12:37:06;;;;;;;6.95;3.83;;;21.00;68.50;;;;;;5062095;28;20369;-64
2021/05/31 12:39:32;;;;;;;5.45;3.25;;;21.10;68.80;;;;;;5065923;28;20076;-64
2021/05/31 12:42:25;;;;;;;9.23;3.83;;;21.10;69.20;;;;;;5070096;28;20487;-64
2021/05/31 12:44:51;;;;;;;5.50;2.65;;;21.20;69.20;;;;;;5066664;28;20048;-64
2021/05/31 12:47:19;;;;;;;5.70;3.13;;;21.20;69.50;;;;;;5065931;28;20400;-64
2021/05/31 12:49:53;;;;;;;11.15;5.68;;;21.20;69.10;;;;;;5062311;28;20032;-64
2021/05/31 12:52:24;;;;;;;13.00;5.80;;;21.20;70.20;;;;;;5059136;28;20069;-64
2021/05/31 12:55:16;;;;;;;16.98;7.97;;;21.30;70.50;;;;;;5071581;28;20037;-64